• Join FlightAware (Why Join?)
  • Login
  • US Flag 
03:25PM EDT


 

Airport Tracker/Info


-or-


 

Live Flight TrackerFlight Track Log ✈ PDT4373 ✈ 14-Oct-2013 ✈ KPHL - KBGM

Flight Track Log - Related Links

Times and Time Zones

All times are in EDT time to prevent confusion due to time zone crossing. See the PDT4373 flight status page for this flight to view local times or setup timezone preferences in your user account.

Time Position Orientation Groundspeed Altitude Reporting Facility
EDT Latitude Longitude Course Direction KTS MPH feet Rate Location/Type
09:55AM 39.8833 -75.2000 311° West 113 130 700  Level Philadelphia TRACON
09:56AM 39.9167 -75.1833 21° North 136 157 2,000 1,260 Climbing Philadelphia TRACON
09:57AM 39.9333 -75.1500 57° Northeast 145 167 3,200 1,200 Climbing Philadelphia TRACON
09:58AM 40.0608 -75.2985 303° West  Level Estimated
09:58AM 39.9833 -75.1833 333° Northwest 165 190 4,400  Level Philadelphia TRACON
09:59AM 40.1236 -75.3178 North  Level Estimated
09:59AM 40.0000 -75.2167 303° West 164 189 5,700  Level Philadelphia TRACON
10:00AM 40.1865 -75.3372 North  Level Estimated
10:00AM 40.0333 -75.2833 303° West 166 191 7,100  Level Philadelphia TRACON
10:01AM 40.2493 -75.3565 311° West  Level Estimated
10:01AM 40.0667 -75.3167 323° Northwest 169 194 8,100  Level Philadelphia TRACON
10:02AM 40.0833 -75.3667 294° West 172 198 9,100 960 Climbing Philadelphia TRACON
10:03AM 40.1136 -75.4175 308° West 172 198 10,100 900 Climbing New York Center
10:04AM 40.1472 -75.4633 314° West 183 211 10,900 840 Climbing New York Center
10:05AM 40.1786 -75.5117 310° West 183 211 11,800 840 Climbing New York Center
10:06AM 40.2236 -75.5364 337° Northwest 183 211 12,600 780 Climbing New York Center
10:07AM 40.2706 -75.5614 338° Northwest 183 211 13,400 660 Climbing New York Center
10:08AM 40.3208 -75.6031 328° Northwest 189 217 14,000 300 Climbing New York Center
10:09AM 40.3736 -75.6422 331° Northwest 205 236 14,000  Level New York Center
10:10AM 40.4325 -75.6789 335° Northwest 221 254 14,000  Level New York Center
10:11AM 40.4956 -75.7136 337° Northwest 242 278 14,000  Level New York Center
10:12AM 40.5564 -75.7533 334° Northwest 242 278 14,000  Level New York Center
10:13AM 40.6131 -75.7958 330° Northwest 242 278 14,000  Level New York Center
10:14AM 40.6681 -75.8272 337° Northwest 237 273 14,000  Level New York Center
10:15AM 40.7350 -75.8650 337° Northwest 237 273 14,000  Level New York Center
10:16AM 40.7936 -75.9078 331° Northwest 232 267 14,000  Level New York Center
10:17AM 40.8503 -75.9450 334° Northwest 237 273 14,000  Level New York Center
10:18AM 40.9067 -75.9906 329° Northwest 237 273 14,000  Level New York Center
10:19AM 40.9653 -76.0306 333° Northwest 237 273 14,000  Level New York Center
10:20AM 41.0264 -76.0628 338° Northwest 237 273 14,000  Level New York Center
10:21AM 41.0828 -76.1058 330° Northwest 232 267 14,000  Level New York Center
10:22AM 41.1375 -76.1431 333° Northwest 237 273 14,000  Level New York Center
10:23AM 41.1961 -76.1808 334° Northwest 237 273 14,000  Level New York Center
10:24AM 41.2633 -76.2111 341° North 237 273 14,000  Level New York Center
10:25AM 41.3308 -76.1972 North 229 264 14,000  Level New York Center
10:26AM 41.3997 -76.1917 North 240 276 14,000  Level New York Center
10:27AM 41.4581 -76.1908 North 240 276 14,000 -180 Level New York Center
10:28AM 41.5272 -76.1853 North 240 276 13,700 -780 Descending New York Center
10:29AM 41.6086 -76.1781 North 254 292 12,500 -1,020 Descending New York Center
10:30AM 41.6669 -76.1772 North 254 292 11,700 -1,200 Descending New York Center
10:31AM 41.7528 -76.1703 North 254 292 10,100 -1,560 Descending New York Center
10:32AM 41.8031 -76.1189 37° Northeast 249 287 8,600 -1,500 Descending New York Center
10:33AM 41.8594 -76.0678 34° Northeast 249 287 7,100 -1,680 Descending New York Center
10:34AM 41.9203 -76.0111 35° Northeast 244 281 5,300 -1,500 Descending New York Center
10:35AM 41.9606 -75.9475 50° Northeast 230 265 4,200 -660 Descending New York Center
10:36AM 41.9922 -75.8858 55° Northeast 210 242 4,000 -120 Descending New York Center
10:37AM 42.0194 -75.8319 56° Northeast 195 224 4,000  Level New York Center
10:38AM 42.0681 -75.8636 334° Northwest 160 184 4,000 -120 Level New York Center
10:39AM 42.1064 -75.8972 327° Northwest 165 190 3,800 -480 Descending New York Center
10:40AM 42.1386 -75.9222 330° Northwest 147 169 3,100 -720 Descending New York Center
10:41AM 42.1667 -75.9467 327° Northwest 130 150 2,400 -480 Descending New York Center
10:42AM 42.1989 -75.9717 330° Northwest 124 143 2,200 -240 Descending New York Center